createdAt,value
2019-01-28T00:00:40.607Z,27.8
2019-01-28T00:01:31.296Z,27.7
2019-01-28T00:02:20.711Z,27.9
2019-01-28T00:03:09.741Z,28.2
2019-01-28T00:03:59.788Z,28.4
2019-01-28T00:04:51.411Z,28.5
2019-01-28T00:05:40.676Z,28.5
2019-01-28T00:06:31.298Z,28.5
2019-01-28T00:07:21.011Z,28.4
2019-01-28T00:08:11.101Z,28.2
2019-01-28T00:09:01.871Z,27.9
2019-01-28T00:09:50.743Z,27.7
2019-01-28T00:10:41.583Z,27.4
2019-01-28T00:11:31.072Z,27.6
2019-01-28T00:12:22.755Z,27.9
2019-01-28T00:13:11.183Z,28.2
2019-01-28T00:14:02.320Z,28.4
2019-01-28T00:14:52.185Z,28.4
2019-01-28T00:15:40.858Z,28.5
2019-01-28T00:16:31.945Z,28.4
2019-01-28T00:17:22.107Z,28.3
2019-01-28T00:18:12.480Z,28.1
2019-01-28T00:19:02.173Z,27.9
2019-01-28T00:19:51.735Z,27.6
2019-01-28T00:21:32.787Z,28.1
2019-01-28T00:22:22.925Z,28.4
2019-01-28T00:23:11.583Z,28.5
2019-01-28T00:24:01.370Z,28.6
2019-01-28T00:24:51.700Z,28.6
2019-01-28T00:25:40.977Z,28.6
2019-01-28T00:26:32.110Z,28.4
2019-01-28T00:27:22.915Z,28.2
2019-01-28T00:28:12.505Z,27.9
2019-01-28T00:29:53.397Z,28.1
2019-01-28T00:30:42.637Z,28.3
2019-01-28T00:31:31.895Z,28.6
2019-01-28T00:32:22.489Z,28.7
2019-01-28T00:33:12.299Z,28.7
2019-01-28T00:34:02.647Z,28.7
2019-01-28T00:34:53.549Z,28.6
2019-01-28T00:35:43.097Z,28.4
2019-01-28T00:36:33.397Z,28.2
2019-01-28T00:37:23.884Z,27.9
2019-01-28T00:38:14.225Z,27.9
2019-01-28T00:39:04.129Z,28.1
2019-01-28T00:39:53.482Z,28.4
2019-01-28T00:40:43.259Z,28.6
2019-01-28T00:41:33.133Z,28.8
2019-01-28T00:42:23.189Z,28.8
2019-01-28T00:43:13.728Z,28.8
2019-01-28T00:44:04.171Z,28.7
2019-01-28T00:44:54.399Z,28.5
2019-01-28T00:45:44.458Z,28.3
2019-01-28T00:46:34.248Z,28.3
2019-01-28T00:47:24.269Z,28.5
2019-01-28T00:48:14.086Z,28.8
2019-01-28T00:49:05.026Z,28.9
2019-01-28T00:49:54.498Z,28.9
2019-01-28T00:50:43.953Z,28.9
2019-01-28T00:51:35.112Z,28.9
2019-01-28T00:52:24.085Z,28.8
2019-01-28T00:53:15.880Z,28.6
2019-01-28T00:54:05.018Z,28.3
2019-01-28T00:54:54.515Z,28.2
2019-01-28T00:55:45.665Z,28.3
2019-01-28T00:56:34.895Z,28.6
2019-01-28T00:57:25.037Z,28.8
2019-01-28T00:58:15.845Z,28.9
2019-01-28T00:59:06.005Z,28.9
2019-01-28T00:59:55.766Z,28.9
2019-01-28T01:00:45.732Z,28.9
2019-01-28T01:01:35.061Z,28.8
2019-01-28T01:02:24.280Z,28.5
2019-01-28T01:03:14.062Z,28.4
2019-01-28T01:04:05.255Z,28.5
2019-01-28T01:04:56.149Z,28.8
2019-01-28T01:05:45.262Z,29
2019-01-28T01:06:35.386Z,29.1
2019-01-28T01:07:24.930Z,29.1
2019-01-28T01:08:15.527Z,29.1
2019-01-28T01:09:05.569Z,29.1
2019-01-28T01:09:55.686Z,28.9
2019-01-28T01:10:45.759Z,28.8
2019-01-28T01:11:34.989Z,28.6
2019-01-28T01:12:26.139Z,28.8
2019-01-28T01:13:15.650Z,28.9
2019-01-28T01:14:05.754Z,29.1
2019-01-28T01:14:54.921Z,29.2
2019-01-28T01:15:45.862Z,29.2
2019-01-28T01:16:35.927Z,29.2
2019-01-28T01:17:25.936Z,29.1
2019-01-28T01:18:14.644Z,28.9
2019-01-28T01:19:06.454Z,28.7
2019-01-28T01:19:56.794Z,28.7
2019-01-28T01:20:45.754Z,28.9
2019-01-28T01:21:36.319Z,29.1
2019-01-28T01:22:26.519Z,29.3
2019-01-28T01:23:16.483Z,29.3
2019-01-28T01:24:06.280Z,29.3
2019-01-28T01:24:57.423Z,29.3
2019-01-28T01:25:45.863Z,29.1
2019-01-28T01:26:36.399Z,28.9
2019-01-28T01:27:27.873Z,28.8
2019-01-28T01:28:16.581Z,28.9
2019-01-28T01:29:07.441Z,29.1
2019-01-28T01:29:56.633Z,29.3
2019-01-28T01:30:46.437Z,29.4
2019-01-28T01:31:37.593Z,29.4
2019-01-28T01:32:27.385Z,29.4
2019-01-28T01:33:16.986Z,29.3
2019-01-28T01:34:07.523Z,29.1
2019-01-28T01:34:57.875Z,28.9
2019-01-28T01:35:47.345Z,28.8
2019-01-28T01:36:37.633Z,28.9
2019-01-28T01:37:27.473Z,29.1
2019-01-28T01:38:17.738Z,29.3
2019-01-28T01:39:07.672Z,29.4
2019-01-28T01:39:58.208Z,29.4
2019-01-28T01:40:47.390Z,29.4
2019-01-28T01:41:36.985Z,29.3
2019-01-28T01:42:27.272Z,29.2
2019-01-28T01:43:17.642Z,28.9
2019-01-28T01:44:07.917Z,28.8
2019-01-28T01:44:58.552Z,28.9
2019-01-28T01:45:48.260Z,29.1
2019-01-28T01:46:37.786Z,29.3
2019-01-28T01:47:28.179Z,29.4
2019-01-28T01:48:18.599Z,29.4
2019-01-28T01:49:08.479Z,29.4
2019-01-28T01:49:58.567Z,29.3
2019-01-28T01:50:49.193Z,29.1
2019-01-28T01:51:38.999Z,28.9
2019-01-28T01:52:29.078Z,28.8
2019-01-28T01:53:18.509Z,29.1
2019-01-28T01:54:09.159Z,29.3
2019-01-28T01:54:59.242Z,29.4
2019-01-28T01:55:48.454Z,29.5
2019-01-28T01:56:39.073Z,29.5
2019-01-28T01:57:29.684Z,29.4
2019-01-28T01:58:21.586Z,29.4
2019-01-28T01:59:09.762Z,29.2
2019-01-28T01:59:58.496Z,29.1
2019-01-28T02:00:49.647Z,29.3
2019-01-28T02:01:39.386Z,29.4
2019-01-28T02:02:37.470Z,29.6
2019-01-28T02:03:19.267Z,29.6
2019-01-28T02:04:09.833Z,29.6
2019-01-28T02:05:00.498Z,29.6
2019-01-28T02:05:49.368Z,29.4
2019-01-28T02:06:39.968Z,29.3
2019-01-28T02:07:29.466Z,29.1
2019-01-28T02:08:20.088Z,28.9
2019-01-28T02:09:10.529Z,29.1
2019-01-28T02:09:59.122Z,29.3
2019-01-28T02:10:49.995Z,29.4
2019-01-28T02:11:39.776Z,29.5
2019-01-28T02:12:29.605Z,29.6
2019-01-28T02:13:19.606Z,29.6
2019-01-28T02:14:09.710Z,29.6
2019-01-28T02:15:00.043Z,29.4
2019-01-28T02:15:48.741Z,29.3
2019-01-28T02:16:40.390Z,29.3
2019-01-28T02:17:30.433Z,29.5
2019-01-28T02:18:21.345Z,29.7
2019-01-28T02:19:10.850Z,29.8
2019-01-28T02:20:00.476Z,29.8
2019-01-28T02:20:50.655Z,29.8
2019-01-28T02:21:40.730Z,29.7
2019-01-28T02:22:30.775Z,29.5
2019-01-28T02:23:20.554Z,29.4
2019-01-28T02:24:10.619Z,29.4
2019-01-28T02:25:01.115Z,29.6
2019-01-28T02:25:50.249Z,29.7
2019-01-28T02:26:41.659Z,29.8
2019-01-28T02:27:31.131Z,29.9
2019-01-28T02:28:21.017Z,29.9
2019-01-28T02:29:11.250Z,29.8
2019-01-28T02:30:01.994Z,29.8
2019-01-28T02:30:51.407Z,29.6
2019-01-28T02:31:42.035Z,29.4
2019-01-28T02:32:32.692Z,29.6
2019-01-28T02:33:21.962Z,29.8
2019-01-28T02:34:11.357Z,29.9
2019-01-28T02:35:02.412Z,30
2019-01-28T02:35:51.697Z,30
2019-01-28T02:36:41.887Z,30
2019-01-28T02:37:32.467Z,29.9
2019-01-28T02:38:22.294Z,29.9
2019-01-28T02:39:11.310Z,29.8
2019-01-28T02:40:02.859Z,29.6
2019-01-28T02:40:52.393Z,29.6
2019-01-28T02:41:41.749Z,29.7
2019-01-28T02:42:31.477Z,29.8
2019-01-28T02:43:22.019Z,29.9
2019-01-28T02:44:12.888Z,30
2019-01-28T02:45:03.060Z,30
2019-01-28T02:45:52.741Z,29.9
2019-01-28T02:46:42.526Z,29.8
2019-01-28T02:47:31.942Z,29.7
2019-01-28T02:48:22.155Z,29.6
2019-01-28T02:49:12.078Z,29.8
2019-01-28T02:50:03.576Z,29.9
2019-01-28T02:50:52.291Z,30.1
2019-01-28T02:51:41.816Z,30.1
2019-01-28T02:52:32.915Z,30.1
2019-01-28T02:53:23.377Z,30.1
2019-01-28T02:54:13.000Z,30
2019-01-28T02:55:03.399Z,29.8
2019-01-28T02:55:53.097Z,29.7
2019-01-28T02:56:43.173Z,29.7
2019-01-28T02:57:32.970Z,29.8
2019-01-28T02:58:23.546Z,30
2019-01-28T02:59:13.067Z,30.1
2019-01-28T03:00:03.290Z,30.1
2019-01-28T03:00:52.800Z,30.1
2019-01-28T03:01:43.262Z,30.1
2019-01-28T03:02:33.123Z,29.9
2019-01-28T03:03:23.714Z,29.8
2019-01-28T03:04:14.025Z,29.9
2019-01-28T03:05:03.906Z,30.1
2019-01-28T03:08:36.357Z,30.2
2019-01-28T03:09:26.655Z,30.1
2019-01-28T03:10:17.308Z,30.1
2019-01-28T03:11:07.049Z,30.2
2019-01-28T03:11:56.590Z,30.3
2019-01-28T03:12:46.350Z,30.4
2019-01-28T03:13:36.992Z,30.4
2019-01-28T03:14:26.454Z,30.4
2019-01-28T03:15:17.157Z,30.3
2019-01-28T03:16:07.411Z,30.2
2019-01-28T03:16:56.916Z,30.1
2019-01-28T03:17:47.041Z,30.1
2019-01-28T03:18:37.937Z,30.3
2019-01-28T03:19:27.609Z,30.4
2019-01-28T03:20:17.052Z,30.4
2019-01-28T03:21:08.589Z,30.4
2019-01-28T03:21:57.269Z,30.4
2019-01-28T03:22:47.659Z,30.4
2019-01-28T03:23:38.388Z,30.3
2019-01-28T03:24:27.651Z,30.1
2019-01-28T03:25:18.275Z,30.1
2019-01-28T03:26:08.098Z,30.2
2019-01-28T03:26:58.676Z,30.3
2019-01-28T03:27:50.622Z,30.4
2019-01-28T03:28:38.726Z,30.4
2019-01-28T03:29:28.594Z,30.4
2019-01-28T03:30:19.320Z,30.4
2019-01-28T03:31:09.096Z,30.3
2019-01-28T03:31:58.417Z,30.3
2019-01-28T03:32:48.750Z,30.4
2019-01-28T03:33:38.745Z,30.5
2019-01-28T03:34:28.599Z,30.6
2019-01-28T03:35:19.497Z,30.6
2019-01-28T03:36:09.303Z,30.6
2019-01-28T03:36:59.303Z,30.6
2019-01-28T03:37:49.442Z,30.6
2019-01-28T03:38:38.095Z,30.4
2019-01-28T03:39:28.477Z,30.5
2019-01-28T03:40:19.565Z,30.6
2019-01-28T03:41:09.108Z,30.6
2019-01-28T03:41:59.920Z,30.7
2019-01-28T03:42:49.770Z,30.8
2019-01-28T03:43:40.103Z,30.7
2019-01-28T03:44:29.535Z,30.6
2019-01-28T03:45:18.557Z,30.6
2019-01-28T03:46:12.237Z,30.4
2019-01-28T03:46:59.767Z,30.5
2019-01-28T03:47:49.308Z,30.6
2019-01-28T03:48:39.836Z,30.7
2019-01-28T03:49:29.044Z,30.8
2019-01-28T03:50:20.356Z,30.8
2019-01-28T03:51:10.704Z,30.8
2019-01-28T03:52:00.140Z,30.8
2019-01-28T03:52:50.518Z,30.6
2019-01-28T03:53:39.640Z,30.5
2019-01-28T03:54:30.525Z,30.6
2019-01-28T03:55:20.642Z,30.7
2019-01-28T03:56:10.999Z,30.8
2019-01-28T03:57:00.389Z,30.8
2019-01-28T03:57:51.137Z,30.8
2019-01-28T03:58:40.797Z,30.8
2019-01-28T03:59:30.929Z,30.7
2019-01-28T04:00:20.946Z,30.6
2019-01-28T04:01:10.424Z,30.6
2019-01-28T04:02:00.759Z,30.7
2019-01-28T04:02:50.994Z,30.8
2019-01-28T04:03:40.306Z,30.9
2019-01-28T04:04:30.626Z,30.9
2019-01-28T04:05:21.634Z,30.8
2019-01-28T04:06:11.276Z,30.8
2019-01-28T04:07:00.520Z,30.7
2019-01-28T04:07:50.918Z,30.6
2019-01-28T04:08:41.456Z,30.5
2019-01-28T04:09:31.541Z,30.6
2019-01-28T04:10:21.621Z,30.8
2019-01-28T04:11:10.808Z,30.8
2019-01-28T04:12:01.406Z,30.9
2019-01-28T04:12:51.804Z,30.9
2019-01-28T04:13:41.843Z,30.9
2019-01-28T04:14:30.798Z,30.8
2019-01-28T04:15:21.633Z,30.8
2019-01-28T04:16:11.904Z,30.8
2019-01-28T04:17:01.834Z,30.8
2019-01-28T04:17:51.863Z,30.9
2019-01-28T04:18:41.345Z,31
2019-01-28T04:19:32.020Z,31
2019-01-28T04:20:22.412Z,31
2019-01-28T04:21:11.788Z,30.9
2019-01-28T04:22:01.352Z,30.9
2019-01-28T04:22:51.505Z,30.8
2019-01-28T04:23:41.920Z,30.8
2019-01-28T04:24:31.144Z,30.9
2019-01-28T04:25:37.575Z,31
2019-01-28T04:26:12.126Z,31.1
2019-01-28T04:27:02.154Z,31.1
2019-01-28T04:27:52.238Z,31
2019-01-28T04:28:41.685Z,31
2019-01-28T04:29:32.589Z,30.9
2019-01-28T04:30:22.540Z,30.9
2019-01-28T04:31:12.710Z,30.9
2019-01-28T04:32:01.958Z,31
2019-01-28T04:32:52.642Z,31.1
2019-01-28T04:33:43.102Z,31.1
2019-01-28T04:34:32.427Z,31.1
2019-01-28T04:35:23.132Z,31.1
2019-01-28T04:36:13.267Z,31.1
2019-01-28T04:37:02.074Z,31
2019-01-28T04:37:53.467Z,31
2019-01-28T04:38:42.789Z,31
2019-01-28T04:39:32.991Z,31.1
2019-01-28T04:40:23.170Z,31.2
2019-01-28T04:41:13.718Z,31.2
2019-01-28T04:42:03.781Z,31.2
2019-01-28T04:42:53.519Z,31.1
2019-01-28T04:43:42.769Z,31.1
2019-01-28T04:44:34.250Z,31
2019-01-28T04:45:23.999Z,31
2019-01-28T04:46:13.799Z,31.1
2019-01-28T04:47:03.803Z,31.2
2019-01-28T04:47:54.340Z,31.2
2019-01-28T04:48:43.970Z,31.2
2019-01-28T04:49:34.302Z,31.1
2019-01-28T04:50:23.535Z,31.1
2019-01-28T04:51:13.809Z,31
2019-01-28T04:52:03.857Z,30.9
2019-01-28T04:52:53.782Z,31
2019-01-28T04:53:44.179Z,31.1
2019-01-28T04:54:34.581Z,31.2
2019-01-28T04:55:23.925Z,31.3
2019-01-28T04:56:14.113Z,31.3
2019-01-28T04:57:04.520Z,31.3
2019-01-28T04:57:55.196Z,31.2
2019-01-28T04:58:44.368Z,31.1
2019-01-28T04:59:34.960Z,31.1
2019-01-28T05:00:25.599Z,31.1
2019-01-28T05:01:15.025Z,31.2
2019-01-28T05:02:05.088Z,31.3
2019-01-28T05:02:54.985Z,31.3
2019-01-28T05:03:44.642Z,31.3
2019-01-28T05:04:34.791Z,31.3
2019-01-28T05:05:25.172Z,31.3
2019-01-28T05:06:17.245Z,31.3
2019-01-28T05:07:04.898Z,31.1
2019-01-28T05:07:55.594Z,31.1
2019-01-28T05:08:44.990Z,31.1
2019-01-28T05:09:35.427Z,31.3
2019-01-28T05:10:24.920Z,31.3
2019-01-28T05:11:14.385Z,31.3
2019-01-28T05:12:05.352Z,31.3
2019-01-28T05:12:55.154Z,31.3
2019-01-28T05:13:45.120Z,31.2
2019-01-28T05:14:34.106Z,31.1
2019-01-28T05:15:25.931Z,31.1
2019-01-28T05:16:15.569Z,31.1
2019-01-28T05:17:04.815Z,31.2
2019-01-28T05:17:54.367Z,31.3
2019-01-28T05:18:45.782Z,31.3
2019-01-28T05:19:37.325Z,31.3
2019-01-28T05:20:26.202Z,31.3
2019-01-28T05:21:16.451Z,31.2
2019-01-28T05:22:05.987Z,31.1
2019-01-28T05:22:55.368Z,31.1
2019-01-28T05:23:46.584Z,31.1
2019-01-28T05:24:36.326Z,31.2
2019-01-28T05:25:25.962Z,31.3
2019-01-28T05:26:17.099Z,31.3
2019-01-28T05:27:06.304Z,31.3
2019-01-28T05:27:56.128Z,31.3
2019-01-28T05:28:45.898Z,31.2
2019-01-28T05:29:35.661Z,31.1
2019-01-28T05:30:26.388Z,31.1
2019-01-28T05:31:15.769Z,31.2
2019-01-28T05:32:06.148Z,31.3
2019-01-28T05:32:56.579Z,31.3
2019-01-28T05:33:46.525Z,31.4
2019-01-28T05:34:36.506Z,31.4
2019-01-28T05:35:26.976Z,31.4
2019-01-28T05:36:16.555Z,31.3
2019-01-28T05:37:07.762Z,31.3
2019-01-28T05:37:57.910Z,31.2
2019-01-28T05:38:46.770Z,31.3
2019-01-28T05:39:37.345Z,31.3
2019-01-28T05:40:27.510Z,31.4
2019-01-28T05:41:17.517Z,31.4
2019-01-28T05:42:07.037Z,31.4
2019-01-28T05:42:57.393Z,31.4
2019-01-28T05:43:46.204Z,31.3
2019-01-28T05:44:37.148Z,31.3
2019-01-28T05:45:27.765Z,31.3
2019-01-28T05:46:17.349Z,31.3
2019-01-28T05:47:07.370Z,31.4
2019-01-28T05:47:58.013Z,31.4
2019-01-28T05:48:47.468Z,31.4
2019-01-28T05:49:37.809Z,31.4
2019-01-28T05:50:27.040Z,31.4
2019-01-28T05:51:17.631Z,31.4
2019-01-28T05:52:07.714Z,31.3
2019-01-28T05:52:58.386Z,31.3
2019-01-28T05:53:48.554Z,31.3
2019-01-28T05:54:38.651Z,31.4
2019-01-28T05:55:28.400Z,31.4
2019-01-28T05:56:17.364Z,31.4
2019-01-28T05:57:09.989Z,31.4
2019-01-28T05:57:58.904Z,31.4
2019-01-28T05:58:48.733Z,31.4
2019-01-28T05:59:38.189Z,31.3
2019-01-28T06:00:28.779Z,31.3
2019-01-28T06:01:18.521Z,31.3
2019-01-28T06:02:09.424Z,31.4
2019-01-28T06:02:58.772Z,31.4
2019-01-28T06:03:49.306Z,31.4
2019-01-28T06:06:36.921Z,31.4
2019-01-28T06:07:41.966Z,31.4
2019-01-28T06:08:17.716Z,31.3
2019-01-28T06:09:07.591Z,31.3
2019-01-28T06:09:57.458Z,31.4
2019-01-28T06:11:01.938Z,31.4
2019-01-28T06:12:33.208Z,31.5
2019-01-28T06:13:37.266Z,31.5
2019-01-28T06:14:41.606Z,31.4
2019-01-28T06:15:03.710Z,31.3
2019-01-28T06:15:53.201Z,31.3
2019-01-28T06:16:42.969Z,31.3
2019-01-28T06:17:41.481Z,31.3
2019-01-28T06:18:23.768Z,31.4
2019-01-28T06:19:40.785Z,31.4
2019-01-28T06:20:03.310Z,31.4
2019-01-28T06:20:52.095Z,31.3
2019-01-28T06:21:42.956Z,31.3
2019-01-28T06:22:46.590Z,31.1
2019-01-28T06:23:22.128Z,30.9
2019-01-28T06:24:28.592Z,30.8
2019-01-28T06:25:02.873Z,30.4
2019-01-28T06:25:52.985Z,30.3
2019-01-28T06:26:43.227Z,30.1
2019-01-28T06:27:33.750Z,29.9
2019-01-28T06:28:22.717Z,29.8
2019-01-28T06:29:13.699Z,29.6
2019-01-28T06:30:17.247Z,29.5
2019-01-28T06:31:07.625Z,29.3
2019-01-28T06:31:43.888Z,29.1
2019-01-28T06:32:47.654Z,29
2019-01-28T06:33:23.227Z,28.8
2019-01-28T07:06:37.146Z,24.8
2019-01-28T07:07:27.036Z,24.6
2019-01-28T07:08:17.304Z,24.6
2019-01-28T07:09:07.638Z,24.5
2019-01-28T07:09:56.336Z,24.5
2019-01-28T07:10:47.146Z,24.4
2019-01-28T07:11:37.043Z,24.3
2019-01-28T07:12:26.703Z,24.3
2019-01-28T07:13:17.043Z,24.2
2019-01-28T07:14:07.643Z,24.1
2019-01-28T07:14:57.178Z,24.1
2019-01-28T07:15:48.062Z,24
2019-01-28T07:16:37.935Z,23.9
2019-01-28T07:17:27.902Z,23.9
2019-01-28T07:18:17.925Z,23.8
2019-01-28T07:19:07.725Z,23.7
2019-01-28T07:19:56.733Z,23.7
2019-01-28T07:20:47.832Z,23.6
2019-01-28T07:21:36.793Z,23.4
2019-01-28T07:22:27.148Z,23.3
2019-01-28T07:23:18.273Z,23.3
2019-01-28T07:24:08.356Z,23.1
2019-01-28T07:24:57.855Z,23.1
2019-01-28T07:25:48.480Z,22.9
2019-01-28T07:26:37.932Z,22.9
2019-01-28T07:27:27.853Z,22.8
2019-01-28T07:28:18.417Z,22.8
2019-01-28T07:29:08.472Z,22.7
2019-01-28T07:29:57.960Z,22.6
2019-01-28T07:30:48.547Z,22.6
2019-01-28T07:31:37.824Z,22.5
2019-01-28T07:32:28.222Z,22.4
2019-01-28T07:33:17.351Z,22.4
2019-01-28T07:34:07.719Z,22.3
2019-01-28T07:34:58.142Z,22.3
2019-01-28T07:35:48.644Z,22.2
2019-01-28T07:36:37.889Z,22.1
2019-01-28T07:37:28.264Z,22.1
2019-01-28T07:38:18.224Z,22.1
2019-01-28T07:39:09.790Z,22
2019-01-28T07:39:59.132Z,22
2019-01-28T07:40:48.406Z,21.9
2019-01-28T07:41:38.426Z,21.9
2019-01-28T07:42:29.628Z,21.9
2019-01-28T07:43:19.642Z,21.9
2019-01-28T07:44:08.846Z,21.9
2019-01-28T07:44:59.175Z,21.8
2019-01-28T07:45:56.268Z,21.8
2019-01-28T07:46:38.879Z,21.8
2019-01-28T07:47:29.079Z,21.8
2019-01-28T07:48:19.393Z,21.8
2019-01-28T07:49:10.035Z,21.8
2019-01-28T07:49:59.255Z,21.7
2019-01-28T07:50:48.842Z,21.7
2019-01-28T07:51:39.971Z,21.7
2019-01-28T07:52:30.038Z,21.7
2019-01-28T07:53:20.018Z,21.7
2019-01-28T07:54:09.596Z,21.6
2019-01-28T07:54:59.916Z,21.6
2019-01-28T07:55:50.233Z,21.5
2019-01-28T07:56:40.316Z,21.4
2019-01-28T07:57:30.655Z,21.3
2019-01-28T07:58:20.380Z,21.1
2019-01-28T07:59:10.138Z,20.9
2019-01-28T08:00:00.262Z,20.9
2019-01-28T08:00:50.851Z,20.8
2019-01-28T08:01:40.890Z,20.7
2019-01-28T08:02:29.808Z,20.7
2019-01-28T08:03:20.450Z,20.6
2019-01-28T08:04:10.768Z,20.6
2019-01-28T08:05:00.793Z,20.6
2019-01-28T08:05:51.025Z,20.6
2019-01-28T08:06:40.508Z,20.6
2019-01-28T08:07:30.705Z,20.5
2019-01-28T08:08:20.832Z,20.5
2019-01-28T08:09:10.787Z,20.4
2019-01-28T08:10:01.150Z,20.4
2019-01-28T08:10:50.747Z,20.4
2019-01-28T08:11:41.280Z,20.4
2019-01-28T08:12:31.294Z,20.4
2019-01-28T08:13:21.680Z,20.4
2019-01-28T08:14:11.529Z,20.3
2019-01-28T08:15:01.862Z,20.4
2019-01-28T08:15:51.845Z,20.3
2019-01-28T08:16:42.210Z,20.3
2019-01-28T08:17:31.384Z,20.3
2019-01-28T08:18:21.279Z,20.3
2019-01-28T08:19:12.060Z,20.3
2019-01-28T08:20:01.657Z,20.3
2019-01-28T08:20:51.959Z,20.2
2019-01-28T08:21:41.679Z,20.2
2019-01-28T08:22:31.747Z,20.2
2019-01-28T08:23:22.656Z,20.2
2019-01-28T08:24:12.755Z,20.1
2019-01-28T08:25:02.459Z,20.1
2019-01-28T08:25:52.261Z,20.1
2019-01-28T08:26:42.904Z,20.6
2019-01-28T08:27:31.503Z,21.8
2019-01-28T08:28:22.419Z,22.8
2019-01-28T08:29:11.931Z,23.4
2019-01-28T08:30:02.626Z,23.8
2019-01-28T08:30:52.611Z,24
2019-01-28T08:31:43.015Z,24.3
2019-01-28T08:32:33.143Z,24.6
2019-01-28T08:33:22.308Z,25
2019-01-28T08:34:12.798Z,25.2
2019-01-28T08:35:03.208Z,25.3
2019-01-28T08:35:52.899Z,25.3
2019-01-28T08:36:43.235Z,25.1
2019-01-28T08:37:32.566Z,24.9
2019-01-28T08:38:24.343Z,24.8
2019-01-28T08:39:13.424Z,24.8
2019-01-28T08:40:04.476Z,25.3
2019-01-28T08:40:52.980Z,25.7
2019-01-28T08:41:42.800Z,25.6
2019-01-28T08:42:32.238Z,25.6
2019-01-28T08:43:25.085Z,25.6
2019-01-28T08:44:13.282Z,25.7
2019-01-28T08:45:03.090Z,25.7
2019-01-28T08:45:55.285Z,25.8
2019-01-28T08:46:43.640Z,25.8
2019-01-28T08:47:33.747Z,25.8
2019-01-28T08:48:29.522Z,25.8
2019-01-28T08:49:12.810Z,25.8
2019-01-28T08:50:03.417Z,25.7
2019-01-28T08:50:53.455Z,25.1
2019-01-28T08:51:43.750Z,24.8
2019-01-28T08:52:34.127Z,24.6
2019-01-28T08:53:23.342Z,24.4
2019-01-28T08:54:13.647Z,24.4
2019-01-28T08:55:04.334Z,24.3
2019-01-28T08:55:53.799Z,24.3
2019-01-28T08:56:44.574Z,24.2
2019-01-28T08:57:33.322Z,24
2019-01-28T08:58:23.673Z,24
2019-01-28T08:59:13.431Z,24.4
2019-01-28T09:00:04.042Z,24.6
2019-01-28T09:00:54.464Z,24.7
2019-01-28T09:01:44.519Z,24.8
2019-01-28T09:02:33.714Z,25.1
2019-01-28T09:03:24.321Z,25
2019-01-28T09:04:14.339Z,24.8
2019-01-28T09:05:04.859Z,24.7
2019-01-28T09:05:54.459Z,24.6
2019-01-28T09:06:44.214Z,24.7
2019-01-28T09:07:34.561Z,25
2019-01-28T09:08:23.814Z,25.3
2019-01-28T09:09:14.706Z,25.6
2019-01-28T09:10:05.179Z,25.8
2019-01-28T09:10:53.961Z,25.8
2019-01-28T09:11:45.131Z,25.8
2019-01-28T09:12:34.933Z,25.9
2019-01-28T09:13:24.673Z,25.9
2019-01-28T09:14:14.996Z,25.9
2019-01-28T09:15:07.348Z,25.9
2019-01-28T09:15:54.938Z,25.9
2019-01-28T09:16:44.886Z,25.8
2019-01-28T09:17:35.293Z,25.8
2019-01-28T09:18:32.720Z,25.6
2019-01-28T09:19:16.128Z,25.1
2019-01-28T09:20:07.693Z,24.9
2019-01-28T09:20:56.242Z,24.7
2019-01-28T09:21:45.798Z,24.6
2019-01-28T09:22:35.853Z,24.6
2019-01-28T09:23:26.115Z,24.5
2019-01-28T09:24:15.782Z,24.3
2019-01-28T09:25:05.207Z,24.3
2019-01-28T09:25:56.855Z,24.5
2019-01-28T09:26:45.585Z,24.7
2019-01-28T09:27:35.418Z,24.8
2019-01-28T09:28:25.402Z,24.9
2019-01-28T09:29:14.924Z,25.6
2019-01-28T09:30:06.535Z,25.1
2019-01-28T09:30:57.843Z,24.8
2019-01-28T09:31:45.405Z,24.6
2019-01-28T09:32:36.470Z,24.5
2019-01-28T09:33:26.353Z,24.5
2019-01-28T09:34:17.474Z,24.5
2019-01-28T09:35:06.210Z,24.4
2019-01-28T09:35:57.250Z,24.4
2019-01-28T09:36:46.850Z,24.4
2019-01-28T09:37:36.935Z,24.4
2019-01-28T09:38:26.423Z,24.4
2019-01-28T09:39:16.333Z,24.2
2019-01-28T09:40:07.143Z,24
2019-01-28T09:40:57.105Z,23.9
2019-01-28T09:41:47.203Z,23.8
2019-01-28T09:42:37.465Z,23.8
2019-01-28T09:43:29.021Z,23.8
2019-01-28T09:44:17.565Z,23.6
2019-01-28T09:45:07.278Z,23.8
2019-01-28T09:45:57.755Z,24.1
2019-01-28T09:46:47.402Z,24.3
2019-01-28T09:47:38.100Z,24.4
2019-01-28T09:48:35.176Z,24.7
2019-01-28T09:49:19.887Z,25.3
2019-01-28T09:50:08.492Z,24.8
2019-01-28T09:50:57.980Z,24.4
2019-01-28T09:51:47.947Z,24.3
2019-01-28T09:52:38.370Z,24.3
2019-01-28T09:53:33.701Z,24.3
2019-01-28T09:54:18.262Z,24.3
2019-01-28T09:55:07.913Z,24.3
2019-01-28T09:55:58.402Z,24.3
2019-01-28T09:56:47.699Z,24.3
2019-01-28T09:57:38.302Z,24.3
2019-01-28T09:58:28.832Z,24.2
2019-01-28T09:59:18.674Z,24.2
2019-01-28T10:00:09.224Z,24
2019-01-28T10:00:58.306Z,23.8
2019-01-28T10:01:49.057Z,23.6
2019-01-28T10:02:38.312Z,23.6
2019-01-28T10:03:28.636Z,23.6
2019-01-28T10:04:18.659Z,23.4
2019-01-28T10:05:08.722Z,23.7
2019-01-28T10:07:36.099Z,24.3
2019-01-28T10:08:25.664Z,24.7
2019-01-28T10:09:20.151Z,25.6
2019-01-28T10:10:06.839Z,25
2019-01-28T10:10:56.363Z,24.7
2019-01-28T10:11:46.734Z,24.6
2019-01-28T10:12:39.083Z,24.4
2019-01-28T10:13:26.218Z,24.4
2019-01-28T10:14:16.555Z,24.5
2019-01-28T10:15:06.395Z,24.5
2019-01-28T10:15:56.994Z,24.6
2019-01-28T10:16:47.531Z,24.6
2019-01-28T10:17:37.046Z,24.6
2019-01-28T10:18:27.146Z,24.6
2019-01-28T10:19:17.156Z,24.6
2019-01-28T10:20:06.561Z,24.2
2019-01-28T10:20:56.463Z,23.9
2019-01-28T10:21:47.086Z,23.7
2019-01-28T10:22:37.379Z,23.6
2019-01-28T10:23:29.050Z,23.6
2019-01-28T10:24:18.068Z,23.4
2019-01-28T10:25:06.987Z,23.4
2019-01-28T10:26:01.520Z,23.7
2019-01-28T10:26:46.888Z,23.9
2019-01-28T10:27:37.170Z,24.1
2019-01-28T10:28:28.350Z,24.5
2019-01-28T10:29:17.010Z,24.8
2019-01-28T10:30:07.775Z,24.3
2019-01-28T10:30:57.132Z,24
2019-01-28T10:31:48.292Z,23.9
2019-01-28T10:32:46.002Z,23.9
2019-01-28T10:33:27.877Z,24.3
2019-01-28T10:34:17.727Z,24.6
2019-01-28T10:35:08.295Z,24.9
2019-01-28T10:35:56.700Z,25.2
2019-01-28T10:36:47.567Z,25.4
2019-01-28T10:37:37.303Z,25.6
2019-01-28T10:38:29.017Z,25.6
2019-01-28T10:39:18.339Z,25.7
2019-01-28T10:40:10.447Z,25.8
2019-01-28T10:40:58.212Z,25.8
2019-01-28T10:41:47.929Z,25.8
2019-01-28T10:42:37.994Z,25.8
2019-01-28T10:43:29.102Z,25.8
2019-01-28T10:44:20.311Z,25.8
2019-01-28T10:45:08.209Z,25.8
2019-01-28T10:45:59.034Z,25.8
2019-01-28T10:46:49.409Z,25.6
2019-01-28T10:47:38.581Z,25.1
2019-01-28T10:48:28.308Z,24.8
2019-01-28T10:49:18.297Z,24.6
2019-01-28T10:50:09.189Z,24.5
2019-01-28T10:50:59.948Z,24.4
2019-01-28T10:51:48.521Z,24.4
2019-01-28T10:52:39.214Z,24.2
2019-01-28T10:53:29.548Z,23.9
2019-01-28T10:54:19.011Z,24.2
2019-01-28T10:55:09.168Z,24.3
2019-01-28T10:55:59.948Z,24.3
2019-01-28T10:56:48.413Z,24.1
2019-01-28T10:57:39.842Z,24.5
2019-01-28T10:58:29.911Z,24.4
2019-01-28T10:59:19.950Z,24.3
2019-01-28T11:00:16.770Z,24.3
2019-01-28T11:01:00.035Z,24.7
2019-01-28T11:01:49.648Z,24.8
2019-01-28T11:02:40.428Z,24.6
2019-01-28T11:03:28.951Z,24.5
2019-01-28T11:04:19.555Z,24.4
2019-01-28T11:05:10.133Z,24.3
2019-01-28T11:05:59.830Z,24.1
2019-01-28T11:06:50.748Z,24
2019-01-28T11:07:40.472Z,23.9
2019-01-28T11:08:29.480Z,23.9
2019-01-28T11:09:19.907Z,23.9
2019-01-28T11:10:11.262Z,24.1
2019-01-28T11:11:01.020Z,24.5
2019-01-28T11:11:53.417Z,24.8
2019-01-28T11:12:42.096Z,24.9
2019-01-28T11:13:30.772Z,25.1
2019-01-28T11:14:21.828Z,25.9
2019-01-28T11:15:10.639Z,25.9
2019-01-28T11:16:02.326Z,25.1
2019-01-28T11:16:52.838Z,24.7
2019-01-28T11:17:41.968Z,24.4
2019-01-28T11:18:32.517Z,24.4
2019-01-28T11:19:20.777Z,24.8
2019-01-28T11:20:12.478Z,25.1
2019-01-28T11:21:02.777Z,25.4
2019-01-28T11:21:53.809Z,25.6
2019-01-28T11:22:41.016Z,25.6
2019-01-28T11:23:33.907Z,25.8
2019-01-28T11:24:22.344Z,25.8
2019-01-28T11:25:12.277Z,25.9
2019-01-28T11:26:02.561Z,25.9
2019-01-28T11:26:52.631Z,26
2019-01-28T11:27:43.757Z,26
2019-01-28T11:28:33.293Z,26
2019-01-28T11:29:23.663Z,26
2019-01-28T11:30:14.729Z,26
2019-01-28T11:31:02.797Z,25.4
2019-01-28T11:31:53.376Z,25.1
2019-01-28T11:32:43.643Z,25.1
2019-01-28T11:33:31.692Z,24.7
2019-01-28T11:34:23.271Z,24.6
2019-01-28T11:35:13.442Z,24.6
2019-01-28T11:36:12.100Z,24.6
2019-01-28T11:36:52.839Z,24.8
2019-01-28T11:37:44.183Z,25.1
2019-01-28T11:38:32.879Z,25.3
2019-01-28T11:39:23.080Z,25.6
2019-01-28T11:40:13.766Z,25.8
2019-01-28T11:41:04.736Z,26
2019-01-28T11:41:53.639Z,26.1
2019-01-28T11:42:45.973Z,26.2
2019-01-28T11:43:33.639Z,26.3
2019-01-28T11:44:23.097Z,26.3
2019-01-28T11:45:14.814Z,26.3
2019-01-28T11:46:04.517Z,26.3
2019-01-28T11:46:53.717Z,26.4
2019-01-28T11:47:44.743Z,26.3
2019-01-28T11:48:35.555Z,26.3
2019-01-28T11:49:25.021Z,26.3
2019-01-28T11:50:14.556Z,26.3